Time;durP1;ratioP1;P1;durP2;ratioP2;P2;SDS_P1;SDS_P2;PMS_P1;PMS_P2;Temp;Humidity;BMP_temperature;BMP_pressure;BME280_temperature;BME280_humidity;BME280_pressure;Samples;Min_cycle;Max_cycle;Signal;HPM_P1;HPM_P2
2022/11/02 00:02:12;;;;;;;8.68;1.75;;;;;;;19.72;56.49;101328.13;5084221;28;20504;-71
2022/11/02 00:04:37;;;;;;;12.65;3.05;;;;;;;19.21;58.32;101330.81;5082417;28;20123;-70
2022/11/02 00:07:02;;;;;;;9.15;1.67;;;;;;;19.59;56.82;101334.16;5083273;28;20036;-70
2022/11/02 00:09:28;;;;;;;11.93;1.95;;;;;;;19.32;58.03;101334.34;5083622;28;20035;-70
2022/11/02 00:11:53;;;;;;;11.95;1.73;;;;;;;18.99;59.20;101324.78;5082082;28;20043;-70
2022/11/02 00:14:19;;;;;;;11.50;2.08;;;;;;;19.35;57.65;101325.69;5083010;28;20040;-71
2022/11/02 00:16:44;;;;;;;9.00;1.75;;;;;;;19.63;57.13;101316.16;5083811;28;20502;-70
2022/11/02 00:19:10;;;;;;;12.90;2.05;;;;;;;19.54;58.10;101323.22;5081622;28;20040;-70
2022/11/02 00:21:36;;;;;;;10.10;2.30;;;;;;;18.47;61.43;101337.66;5084714;28;20073;-69
2022/11/02 00:24:03;;;;;;;11.55;2.83;;;;;;;19.06;59.63;101332.69;5082086;28;20094;-70
2022/11/02 00:26:29;;;;;;;15.13;2.50;;;;;;;18.46;61.71;101332.47;5081646;28;20047;-69
2022/11/02 00:28:54;;;;;;;13.73;2.40;;;;;;;18.99;59.51;101332.13;5082856;28;20059;-68
2022/11/02 00:31:20;;;;;;;22.23;2.58;;;;;;;19.02;59.85;101323.41;5083587;28;20038;-69
2022/11/02 00:33:45;;;;;;;12.82;2.10;;;;;;;18.79;60.29;101338.31;5083652;28;20029;-70
2022/11/02 00:36:11;;;;;;;14.25;2.28;;;;;;;18.04;62.99;101348.81;5082528;28;20036;-69
2022/11/02 00:38:36;;;;;;;9.52;2.10;;;;;;;18.19;62.84;101344.28;5084094;28;20016;-68
2022/11/02 00:41:01;;;;;;;14.20;2.70;;;;;;;18.29;62.65;101335.34;5083452;28;20032;-69
2022/11/02 00:43:27;;;;;;;10.82;2.47;;;;;;;18.99;60.60;101332.13;5082319;28;20084;-69
2022/11/02 00:45:52;;;;;;;12.50;3.25;;;;;;;18.96;59.84;101327.22;5083770;28;20036;-69
2022/11/02 00:48:17;;;;;;;15.52;2.80;;;;;;;18.47;61.35;101315.06;5082132;28;20037;-69
2022/11/02 00:50:43;;;;;;;10.88;2.08;;;;;;;18.78;60.35;101323.09;5084658;28;20024;-70
2022/11/02 00:53:08;;;;;;;19.70;4.00;;;;;;;18.27;61.60;101324.75;5083940;28;20055;-68
2022/11/02 00:55:34;;;;;;;19.08;2.88;;;;;;;18.11;61.47;101331.19;5081301;28;20036;-69
2022/11/02 00:57:59;;;;;;;19.63;2.47;;;;;;;18.13;61.71;101322.75;5084173;28;20028;-69
2022/11/02 01:00:24;;;;;;;13.82;2.45;;;;;;;18.18;61.21;101323.59;5082572;28;20051;-68
2022/11/02 01:02:50;;;;;;;14.57;3.28;;;;;;;17.95;61.81;101324.00;5085428;28;20388;-69
2022/11/02 01:05:15;;;;;;;16.50;2.95;;;;;;;18.18;61.55;101318.16;5081740;28;20040;-70
2022/11/02 01:07:41;;;;;;;14.30;3.40;;;;;;;18.40;60.28;101326.16;5082646;28;20063;-70
2022/11/02 01:10:08;;;;;;;27.98;2.67;;;;;;;17.54;62.40;101316.63;5083183;28;20039;-69
2022/11/02 01:12:38;;;;;;;19.88;3.03;;;;;;;18.13;61.35;101322.75;5081441;28;20565;-70
2022/11/02 01:15:05;;;;;;;16.58;2.25;;;;;;;18.30;60.00;101318.75;5079406;28;20033;-69
2022/11/02 01:17:31;;;;;;;13.10;2.60;;;;;;;18.01;60.77;101308.53;5082780;28;20020;-70
2022/11/02 01:19:56;;;;;;;15.35;3.25;;;;;;;17.77;61.44;101318.16;5082103;28;20023;-69
2022/11/02 01:22:22;;;;;;;9.60;2.47;;;;;;;17.74;61.33;101316.78;5082309;28;20040;-69
2022/11/02 01:24:47;;;;;;;17.90;3.30;;;;;;;17.99;60.78;101340.59;5080725;28;20384;-69
2022/11/02 01:27:12;;;;;;;6.65;1.80;;;;;;;17.37;62.13;101327.59;5080433;28;20028;-69
2022/11/02 01:29:38;;;;;;;13.18;2.70;;;;;;;17.67;61.35;101327.03;5079855;28;20578;-70
2022/11/02 01:32:03;;;;;;;9.48;2.10;;;;;;;17.66;60.87;101322.69;5082555;28;20089;-68
2022/11/02 01:34:29;;;;;;;11.50;3.22;;;;;;;18.32;59.39;101318.50;5082878;28;20515;-70
2022/11/02 01:36:54;;;;;;;12.50;2.53;;;;;;;17.79;59.84;101318.72;5081121;28;20036;-68
2022/11/02 01:39:19;;;;;;;16.52;2.85;;;;;;;18.18;58.88;101331.75;5079623;28;20434;-70
2022/11/02 01:41:50;;;;;;;13.27;2.55;;;;;;;17.77;60.50;101323.59;5074887;28;20499;-68
2022/11/02 01:44:26;;;;;;;7.47;2.30;;;;;;;18.01;59.12;101313.97;5071452;28;20036;-68
2022/11/02 01:46:53;;;;;;;14.43;2.03;;;;;;;17.83;59.91;101315.22;5072187;28;20036;-68
2022/11/02 01:49:21;;;;;;;11.50;2.20;;;;;;;18.25;58.23;101313.31;5072454;28;20060;-68
2022/11/02 01:52:12;;;;;;;11.57;2.20;;;;;;;18.28;58.40;101336.44;5092342;28;20051;-69
2022/11/02 01:54:50;;;;;;;8.93;1.75;;;;;;;17.78;61.37;101326.06;5085638;28;20519;-68
2022/11/02 01:57:20;;;;;;;13.57;2.22;;;;;;;17.28;63.29;101339.16;5072454;28;20032;-68
2022/11/02 02:00:18;;;;;;;10.52;2.88;;;;;;;17.10;64.86;101347.69;5092091;28;20043;-70
2022/11/02 02:03:06;;;;;;;8.20;1.85;;;;;;;17.28;64.30;101347.31;5008762;28;20053;-70
2022/11/02 02:05:33;;;;;;;16.35;1.92;;;;;;;17.55;63.55;101348.16;5009201;28;20042;-69
2022/11/02 02:08:02;;;;;;;8.55;2.05;;;;;;;17.74;62.73;101349.41;5009991;28;20133;-68
2022/11/02 02:10:27;;;;;;;10.73;1.85;;;;;;;17.57;62.47;101351.44;5009396;28;20042;-69
2022/11/02 02:12:53;;;;;;;8.25;1.30;;;;;;;17.51;61.67;101338.88;5009165;28;20049;-69
2022/11/02 02:15:23;;;;;;;9.68;2.72;;;;;;;17.22;62.05;101330.16;5009416;28;20041;-69
2022/11/02 02:17:56;;;;;;;5.32;1.83;;;;;;;17.74;60.20;101332.25;4995792;28;20118;-70
2022/11/02 02:20:57;;;;;;;6.75;2.15;;;;;;;16.94;60.28;101329.59;4990333;28;20097;-69
2022/11/02 02:24:19;;;;;;;5.53;1.25;;;;;;;17.09;58.08;101305.31;4989807;28;20045;-70
2022/11/02 02:27:09;;;;;;;6.75;1.08;;;;;;;16.54;57.75;101325.34;4931777;29;20044;-69
2022/11/02 02:29:46;;;;;;;6.75;1.10;;;;;;;17.03;56.26;101330.78;4931841;29;20038;-70
2022/11/02 02:32:25;;;;;;;6.88;1.05;;;;;;;16.89;57.36;101326.81;4932253;29;20691;-69
2022/11/02 02:34:59;;;;;;;3.85;1.00;;;;;;;16.66;57.14;101325.19;4931817;29;20048;-68
2022/11/02 02:37:36;;;;;;;6.65;0.82;;;;;;;16.28;57.93;101317.91;4940214;28;20043;-70
2022/11/02 02:40:12;;;;;;;5.80;1.95;;;;;;;17.11;56.37;101312.13;5008306;28;20529;-68
2022/11/02 02:42:53;;;;;;;7.93;0.93;;;;;;;16.47;56.38;101321.94;5009263;28;20500;-70
2022/11/02 02:45:23;;;;;;;1.92;0.45;;;;;;;16.85;55.56;101312.09;5009031;28;20092;-69
2022/11/02 02:47:56;;;;;;;8.43;1.35;;;;;;;16.42;56.23;101318.34;5008878;28;20128;-70
2022/11/02 02:50:28;;;;;;;4.43;1.30;;;;;;;16.04;57.80;101319.19;5002197;28;20045;-70
2022/11/02 02:52:55;;;;;;;4.72;0.70;;;;;;;16.16;56.78;101330.75;5028960;28;20046;-69
2022/11/02 02:55:30;;;;;;;5.25;0.63;;;;;;;16.91;54.92;101335.53;5028359;28;20064;-68
2022/11/02 02:57:58;;;;;;;2.88;1.00;;;;;;;16.58;55.51;101334.63;5056948;28;20028;-68
2022/11/02 03:00:24;;;;;;;5.47;0.88;;;;;;;16.53;55.69;101331.00;5071609;28;20040;-69
2022/11/02 03:02:59;;;;;;;10.13;2.70;;;;;;;16.55;55.45;101340.53;5086100;28;20395;-70
2022/11/02 03:05:29;;;;;;;4.28;0.98;;;;;;;16.34;56.37;101332.34;5091721;28;20036;-69
2022/11/02 03:07:58;;;;;;;9.93;1.77;;;;;;;16.09;56.93;101335.53;5091941;28;20071;-70
2022/11/02 03:11:01;;;;;;;2.33;0.70;;;;;;;16.43;55.85;101339.00;5091216;28;20083;-71
2022/11/02 03:13:34;;;;;;;3.05;0.60;;;;;;;15.90;57.66;101346.91;5089427;28;20060;-69
2022/11/02 03:16:04;;;;;;;7.60;1.17;;;;;;;16.85;55.54;101333.81;5078516;28;20047;-69
2022/11/02 03:18:56;;;;;;;12.23;1.75;;;;;;;16.28;57.18;101328.75;5070993;28;20036;-68
2022/11/02 03:21:21;;;;;;;7.47;1.13;;;;;;;16.33;57.23;101325.28;4989093;28;20053;-69
2022/11/02 03:23:52;;;;;;;6.85;1.67;;;;;;;16.44;56.60;101327.88;4989310;28;20105;-70
2022/11/02 03:26:55;;;;;;;12.57;1.38;;;;;;;16.58;56.49;101331.06;5009115;28;20046;-68
2022/11/02 03:29:27;;;;;;;3.88;1.25;;;;;;;16.69;56.56;101327.41;5009083;28;20127;-70
2022/11/02 03:32:10;;;;;;;8.18;1.98;;;;;;;16.91;55.98;101313.81;5008977;28;20054;-70
2022/11/02 03:34:41;;;;;;;8.23;1.20;;;;;;;16.39;57.34;101313.44;5008724;28;20517;-69
2022/11/02 03:37:21;;;;;;;11.48;2.67;;;;;;;16.78;57.12;101325.91;5008661;28;20156;-70
2022/11/02 03:39:53;;;;;;;10.15;1.67;;;;;;;16.21;58.74;101316.44;5008712;28;20080;-70
2022/11/02 03:42:26;;;;;;;13.57;2.60;;;;;;;16.35;58.86;101326.66;5008640;28;20040;-69
2022/11/02 03:44:57;;;;;;;10.48;1.52;;;;;;;16.49;57.73;101327.97;5008593;28;20030;-70
2022/11/02 03:47:25;;;;;;;7.13;2.20;;;;;;;17.05;56.23;101329.44;5008796;28;20092;-70
2022/11/02 03:49:54;;;;;;;12.30;1.65;;;;;;;16.52;57.87;101346.47;5008190;28;20091;-69
2022/11/02 03:52:24;;;;;;;12.05;2.20;;;;;;;17.29;55.65;101333.50;5011954;28;20569;-69
2022/11/02 03:55:01;;;;;;;5.30;1.30;;;;;;;16.92;56.49;101329.84;5012123;28;20100;-69
2022/11/02 03:57:45;;;;;;;12.32;2.15;;;;;;;17.06;56.53;101336.50;5019273;28;20056;-70
2022/11/02 04:00:12;;;;;;;10.32;2.08;;;;;;;17.16;56.08;101328.47;5074262;28;20029;-70
2022/11/02 04:02:40;;;;;;;8.93;2.50;;;;;;;16.72;57.57;101347.78;5073947;28;20039;-69
2022/11/02 04:05:06;;;;;;;9.88;1.42;;;;;;;16.61;58.18;101344.94;5074616;28;20032;-69
2022/11/02 04:10:20;;;;;;;9.63;1.63;;;;;;;17.03;56.58;101345.19;5031282;28;20072;-69
2022/11/02 04:15:30;;;;;;;11.57;1.58;;;;;;;17.31;56.45;101346.81;5031398;28;20069;-70
2022/11/02 04:20:39;;;;;;;5.85;1.30;;;;;;;16.91;57.48;101354.53;5031358;28;20106;-69
2022/11/02 04:25:53;;;;;;;11.90;1.60;;;;;;;16.78;57.55;101376.63;5031242;28;20053;-69
2022/11/02 04:28:18;;;;;;;8.23;1.50;;;;;;;16.73;57.72;101393.66;5031206;28;20045;-69
2022/11/02 04:30:44;;;;;;;18.10;3.40;;;;;;;17.12;56.98;101394.44;5031190;28;20037;-70
2022/11/02 04:35:53;;;;;;;11.30;2.20;;;;;;;16.77;57.55;101410.28;5031043;28;20088;-70
2022/11/02 04:43:54;;;;;;;11.23;2.80;;;;;;;17.12;56.22;101408.00;5002215;28;20112;-69
2022/11/02 04:46:22;;;;;;;12.70;2.17;;;;;;;17.55;55.40;101410.69;5008482;28;20038;-69
2022/11/02 04:48:47;;;;;;;7.68;1.75;;;;;;;16.46;57.86;101409.00;5050569;28;20638;-68
2022/11/02 04:51:13;;;;;;;15.35;2.08;;;;;;;16.41;58.84;101406.25;5033739;28;20038;-70
2022/11/02 04:53:38;;;;;;;15.70;2.70;;;;;;;16.79;57.94;101419.81;5030745;28;20128;-70
2022/11/02 04:56:04;;;;;;;10.98;2.13;;;;;;;16.11;59.77;101439.16;5031120;28;20464;-70
2022/11/02 04:58:30;;;;;;;17.25;2.70;;;;;;;16.79;57.92;101429.84;5030723;28;20052;-70
2022/11/02 05:00:55;;;;;;;17.55;2.67;;;;;;;16.48;58.99;101431.28;5030638;28;20041;-69
2022/11/02 05:03:20;;;;;;;11.98;1.95;;;;;;;17.17;57.20;101438.75;5029837;28;20570;-69
2022/11/02 05:05:46;;;;;;;23.05;4.35;;;;;;;16.91;58.21;101430.53;5030241;28;20045;-70
2022/11/02 05:08:11;;;;;;;14.93;2.13;;;;;;;17.02;58.21;101429.63;5030944;28;20373;-70
2022/11/02 05:10:37;;;;;;;14.35;2.90;;;;;;;16.35;59.66;101439.78;5030376;28;20048;-69
2022/11/02 05:13:02;;;;;;;9.90;1.63;;;;;;;16.46;59.52;101460.56;5030255;28;20370;-69
2022/11/02 05:15:28;;;;;;;12.20;2.25;;;;;;;16.50;59.50;101442.75;5038384;28;20546;-69
2022/11/02 05:17:53;;;;;;;17.73;2.28;;;;;;;16.55;59.12;101451.78;5049847;28;20107;-69
2022/11/02 05:20:19;;;;;;;11.77;2.80;;;;;;;16.75;58.76;101459.38;5058291;28;20507;-69
2022/11/02 05:22:44;;;;;;;20.67;3.35;;;;;;;16.45;60.10;101438.03;5072934;28;20032;-70
2022/11/02 05:25:10;;;;;;;10.63;2.00;;;;;;;16.32;60.95;101445.69;5084309;28;20040;-69
2022/11/02 05:27:36;;;;;;;9.43;2.05;;;;;;;16.15;61.32;101461.16;5092899;28;20143;-69
2022/11/02 05:30:03;;;;;;;16.75;3.13;;;;;;;16.46;61.54;101471.41;5093133;28;20118;-69
2022/11/02 05:32:29;;;;;;;13.80;2.95;;;;;;;16.11;62.68;101476.28;5093142;28;20043;-69
2022/11/02 05:34:54;;;;;;;11.07;2.28;;;;;;;16.44;61.13;101471.66;5093044;28;20024;-69
2022/11/02 05:37:20;;;;;;;13.60;3.33;;;;;;;15.98;63.20;101468.47;5092746;28;20036;-68
2022/11/02 05:39:45;;;;;;;13.45;2.47;;;;;;;16.54;62.15;101471.84;5083858;28;20094;-70
2022/11/02 05:42:11;;;;;;;25.60;3.30;;;;;;;16.45;62.47;101473.28;5072109;28;20046;-69
2022/11/02 05:44:36;;;;;;;15.73;3.00;;;;;;;16.20;62.99;101483.75;5077444;28;20090;-70
2022/11/02 05:47:02;;;;;;;22.90;3.70;;;;;;;16.63;62.33;101485.81;5072671;28;20483;-71
2022/11/02 05:49:28;;;;;;;21.98;3.28;;;;;;;17.11;60.46;101480.50;5073828;28;20048;-71
2022/11/02 05:51:53;;;;;;;16.35;2.65;;;;;;;15.97;63.88;101491.22;5092524;28;20383;-71
2022/11/02 05:54:19;;;;;;;16.02;2.67;;;;;;;16.00;63.68;101513.22;5092543;28;20036;-70
2022/11/02 05:56:44;;;;;;;19.40;2.75;;;;;;;16.11;63.47;101495.25;5092561;28;20020;-69
2022/11/02 05:59:10;;;;;;;17.95;2.90;;;;;;;16.00;64.39;101509.72;5092642;28;20036;-68
2022/11/02 06:01:35;;;;;;;19.83;1.75;;;;;;;15.56;66.52;101516.75;5092356;28;20040;-69
2022/11/02 06:04:01;;;;;;;15.90;3.10;;;;;;;16.00;64.91;101523.28;5092091;28;20036;-70
2022/11/02 06:06:26;;;;;;;20.75;3.05;;;;;;;16.22;64.79;101522.31;5091959;28;20044;-70
2022/11/02 06:08:52;;;;;;;14.20;2.45;;;;;;;16.01;65.45;101528.44;5092205;28;20409;-70
2022/11/02 06:11:17;;;;;;;19.02;2.42;;;;;;;16.06;64.99;101523.09;5092672;28;20032;-70
2022/11/02 06:13:43;;;;;;;18.27;3.60;;;;;;;16.53;63.30;101534.50;5092093;28;20567;-69
2022/11/02 06:16:10;;;;;;;16.15;4.63;;;;;;;15.72;66.97;101534.97;5092089;28;20044;-71
2022/11/02 06:18:37;;;;;;;10.52;3.35;;;;;;;15.87;66.52;101540.66;5092079;28;20040;-69
2022/11/02 06:21:03;;;;;;;15.02;2.22;;;;;;;16.47;64.45;101524.63;5083223;28;20548;-71
2022/11/02 06:23:29;;;;;;;15.10;2.50;;;;;;;16.25;64.71;101548.94;5072056;28;20079;-70
2022/11/02 06:25:57;;;;;;;15.52;3.08;;;;;;;15.96;66.18;101551.94;5072166;28;20029;-69
2022/11/02 06:28:23;;;;;;;21.30;2.35;;;;;;;15.61;67.85;101555.59;5071748;28;20082;-69
2022/11/02 06:30:49;;;;;;;17.02;2.92;;;;;;;16.26;66.21;101566.84;5071610;28;20041;-71
2022/11/02 06:33:16;;;;;;;22.52;3.33;;;;;;;16.49;64.62;101574.06;5071279;28;20048;-70
2022/11/02 06:35:48;;;;;;;11.52;2.22;;;;;;;16.34;64.66;101569.16;5071433;28;20154;-68
2022/11/02 06:38:14;;;;;;;26.52;2.88;;;;;;;16.32;65.51;101568.59;5071837;28;20029;-69
2022/11/02 06:40:40;;;;;;;15.13;3.08;;;;;;;15.80;66.25;101586.88;5083389;28;20040;-71
2022/11/02 06:43:06;;;;;;;21.63;3.17;;;;;;;15.84;67.12;101579.91;5080396;28;20084;-70
2022/11/02 06:45:31;;;;;;;23.20;3.08;;;;;;;15.92;65.44;101583.31;5081992;28;20496;-69
2022/11/02 06:47:57;;;;;;;13.00;2.67;;;;;;;16.09;65.34;101595.00;5071524;28;20024;-69
2022/11/02 06:50:23;;;;;;;18.75;2.70;;;;;;;16.05;65.56;101599.25;5081068;28;20078;-70
2022/11/02 06:52:50;;;;;;;15.23;2.53;;;;;;;16.24;64.49;101606.13;5088230;28;20131;-69
2022/11/02 06:55:16;;;;;;;25.00;2.58;;;;;;;16.68;63.44;101616.16;5091570;28;20047;-69
2022/11/02 06:57:43;;;;;;;15.40;2.65;;;;;;;16.59;63.96;101623.06;5089100;28;20028;-70
2022/11/02 07:00:12;;;;;;;22.77;3.47;;;;;;;15.91;65.65;101623.13;5082881;28;20043;-70
2022/11/02 07:02:38;;;;;;;17.20;3.33;;;;;;;15.72;66.59;101627.88;5078800;28;20051;-69
2022/11/02 07:05:04;;;;;;;21.65;4.45;;;;;;;16.15;64.61;101632.00;5082092;28;20036;-69
2022/11/02 07:07:29;;;;;;;13.88;2.78;;;;;;;15.92;65.15;101642.94;5078479;28;20096;-69
2022/11/02 07:09:55;;;;;;;18.25;3.90;;;;;;;15.70;66.03;101640.06;5080335;28;20450;-67
2022/11/02 07:12:21;;;;;;;10.48;3.00;;;;;;;15.94;64.78;101662.50;5079985;28;20036;-68
2022/11/02 07:14:46;;;;;;;15.88;2.20;;;;;;;16.00;65.15;101659.63;5081685;28;20180;-70
2022/11/02 07:17:12;;;;;;;16.90;2.55;;;;;;;15.83;65.52;101675.00;5078102;28;20040;-72
2022/11/02 07:19:37;;;;;;;14.98;2.45;;;;;;;16.13;64.57;101667.50;5083260;28;20483;-70
2022/11/02 07:22:02;;;;;;;13.90;2.22;;;;;;;16.30;63.82;101675.66;5090034;28;20036;-71
2022/11/02 07:24:28;;;;;;;13.63;2.60;;;;;;;16.37;63.56;101679.06;5090506;28;20499;-70
2022/11/02 07:26:54;;;;;;;9.68;2.00;;;;;;;16.15;64.43;101697.09;5093468;28;20111;-69
2022/11/02 07:29:19;;;;;;;12.60;2.42;;;;;;;16.32;63.66;101696.06;5094494;28;20047;-71
2022/11/02 07:31:44;;;;;;;24.85;2.80;;;;;;;16.35;63.72;101697.47;5094133;28;20059;-70
2022/11/02 07:34:11;;;;;;;7.72;2.15;;;;;;;16.08;64.01;101696.41;5093515;28;20047;-69
2022/11/02 07:36:36;;;;;;;13.57;3.72;;;;;;;16.14;63.70;101706.25;5085459;28;20123;-69
2022/11/02 07:39:03;;;;;;;21.90;2.63;;;;;;;16.20;63.41;101700.72;5074770;28;20047;-72
2022/11/02 07:41:28;;;;;;;8.40;1.65;;;;;;;16.26;63.35;101715.19;5091275;28;20101;-69
2022/11/02 07:43:54;;;;;;;10.63;1.63;;;;;;;16.39;62.05;101723.88;5091770;28;20020;-71
2022/11/02 07:46:19;;;;;;;17.63;2.83;;;;;;;16.19;62.47;101720.78;5090413;28;20048;-69
2022/11/02 07:48:46;;;;;;;12.23;1.63;;;;;;;15.92;62.56;101737.81;5090895;28;20425;-69
2022/11/02 07:51:11;;;;;;;13.80;2.05;;;;;;;16.52;60.92;101739.91;5085492;28;20714;-69
2022/11/02 07:53:37;;;;;;;10.25;1.55;;;;;;;16.53;60.65;101749.69;5088877;28;20040;-71
2022/11/02 07:56:03;;;;;;;12.63;2.38;;;;;;;16.77;60.19;101746.84;5087602;28;20406;-69
2022/11/02 07:58:29;;;;;;;12.90;1.70;;;;;;;16.51;60.60;101762.66;5090539;28;20047;-68
2022/11/02 08:00:58;;;;;;;10.77;2.13;;;;;;;16.35;60.67;101763.38;5093347;28;20024;-68
2022/11/02 08:03:23;;;;;;;9.10;1.67;;;;;;;16.85;59.72;101760.88;5092540;28;20043;-68
2022/11/02 08:05:48;;;;;;;14.07;1.98;;;;;;;16.70;60.15;101768.75;5092775;28;20043;-68
2022/11/02 08:08:23;;;;;;;11.23;2.05;;;;;;;16.93;59.02;101771.34;5093804;28;20032;-69
2022/11/02 08:10:51;;;;;;;10.75;1.95;;;;;;;16.23;61.61;101780.78;5093211;28;20024;-69
2022/11/02 08:13:19;;;;;;;11.32;2.00;;;;;;;16.35;60.85;101782.38;5093103;28;20028;-68
2022/11/02 08:15:50;;;;;;;13.45;1.80;;;;;;;16.75;59.20;101776.97;5093235;28;20032;-68
2022/11/02 08:18:22;;;;;;;8.73;2.00;;;;;;;16.85;58.57;101771.72;5086714;28;20530;-69
2022/11/02 08:20:48;;;;;;;11.27;2.15;;;;;;;16.44;58.75;101786.38;5089906;28;20123;-67
2022/11/02 08:23:15;;;;;;;12.45;2.22;;;;;;;16.54;58.62;101788.50;5093989;28;20039;-68
2022/11/02 08:25:42;;;;;;;11.35;1.60;;;;;;;16.56;58.62;101770.91;5090153;28;20032;-69
2022/11/02 08:28:12;;;;;;;10.43;1.98;;;;;;;16.93;56.70;101781.34;5093985;28;20404;-68
2022/11/02 08:30:38;;;;;;;12.02;2.03;;;;;;;16.84;56.83;101782.84;5091287;28;20107;-69
2022/11/02 08:33:11;;;;;;;11.10;1.70;;;;;;;16.30;58.58;101793.13;5091298;28;20396;-68
2022/11/02 08:35:38;;;;;;;13.73;3.08;;;;;;;17.15;56.57;101794.00;5093899;28;20070;-68
2022/11/02 08:38:04;;;;;;;11.63;2.47;;;;;;;17.38;55.86;101793.84;5093195;28;20555;-67
2022/11/02 08:40:30;;;;;;;16.85;3.15;;;;;;;17.43;55.33;101785.75;5079817;28;20036;-68
2022/11/02 08:42:58;;;;;;;16.25;1.63;;;;;;;17.86;54.00;101806.03;5073336;28;20033;-69
2022/11/02 08:45:23;;;;;;;10.45;3.17;;;;;;;17.72;54.70;101805.56;5073430;28;20036;-70
2022/11/02 08:47:49;;;;;;;15.13;3.50;;;;;;;17.14;56.49;101816.00;5073531;28;20044;-69
2022/11/02 08:50:14;;;;;;;6.65;2.20;;;;;;;17.09;56.22;101824.03;5081960;28;20028;-68
2022/11/02 08:52:40;;;;;;;11.90;2.00;;;;;;;17.29;55.20;101833.38;5093517;28;20028;-65
2022/11/02 08:55:05;;;;;;;12.07;3.15;;;;;;;17.23;55.21;101831.63;5093456;28;20512;-67
2022/11/02 08:57:31;;;;;;;14.57;1.60;;;;;;;16.96;56.01;101832.47;5093436;28;20047;-69
2022/11/02 08:59:56;;;;;;;8.38;1.23;;;;;;;17.18;55.54;101826.09;5093377;28;20032;-69
2022/11/02 09:02:22;;;;;;;11.27;1.83;;;;;;;17.83;53.22;101826.38;5093722;28;20352;-68
2022/11/02 09:04:47;;;;;;;10.02;1.90;;;;;;;17.75;52.96;101836.88;5093216;28;20036;-69
2022/11/02 09:07:13;;;;;;;11.07;1.50;;;;;;;17.94;52.57;101844.53;5092955;28;20051;-67
2022/11/02 09:09:38;;;;;;;8.00;1.85;;;;;;;17.85;53.26;101839.72;5085799;28;20032;-68
2022/11/02 09:12:04;;;;;;;9.52;1.55;;;;;;;17.63;53.37;101845.09;5072662;28;20032;-67
2022/11/02 09:14:29;;;;;;;12.82;1.67;;;;;;;17.67;53.25;101848.16;5073068;28;20032;-67
2022/11/02 09:16:55;;;;;;;11.50;2.50;;;;;;;17.68;53.54;101847.91;5073149;28;20377;-68
2022/11/02 09:19:20;;;;;;;9.05;1.85;;;;;;;18.15;51.74;101846.47;5072674;28;20087;-68
2022/11/02 09:21:46;;;;;;;7.75;1.67;;;;;;;17.59;52.55;101851.28;5072749;28;20040;-69
2022/11/02 09:24:12;;;;;;;10.35;1.48;;;;;;;17.42;53.11;101857.50;5072833;28;20496;-67
2022/11/02 09:26:37;;;;;;;9.48;1.83;;;;;;;18.03;51.15;101855.78;5072529;28;20027;-68
2022/11/02 09:29:03;;;;;;;13.07;2.13;;;;;;;17.51;51.64;101869.63;5077875;28;20032;-68
2022/11/02 09:31:29;;;;;;;13.60;2.63;;;;;;;17.75;51.30;101880.38;5072575;28;20047;-68
2022/11/02 09:33:54;;;;;;;9.95;1.55;;;;;;;17.82;51.01;101881.03;5081702;28;20040;-67
2022/11/02 09:36:19;;;;;;;10.50;1.75;;;;;;;17.53;51.75;101886.53;5092633;28;20515;-68
2022/11/02 09:38:45;;;;;;;9.38;2.05;;;;;;;17.36;52.02;101876.66;5092798;28;20028;-66
2022/11/02 09:41:21;;;;;;;10.75;2.00;;;;;;;18.31;50.49;101885.59;5073203;28;20059;-68
2022/11/02 09:43:52;;;;;;;5.90;1.13;;;;;;;17.37;52.00;101887.31;5072313;28;20095;-67
2022/11/02 09:46:24;;;;;;;12.10;1.88;;;;;;;18.23;50.39;101899.63;5072105;28;20049;-68
2022/11/02 09:48:53;;;;;;;15.13;2.05;;;;;;;17.59;51.23;101882.03;5071978;28;20119;-69
2022/11/02 09:51:24;;;;;;;7.88;2.40;;;;;;;17.52;51.25;101886.78;5089161;28;20036;-69
2022/11/02 09:54:12;;;;;;;8.45;2.05;;;;;;;18.37;49.14;101895.47;5090986;28;20024;-69
2022/11/02 09:56:39;;;;;;;14.57;3.45;;;;;;;18.00;49.96;101911.53;5092124;28;20044;-69
2022/11/02 09:59:13;;;;;;;11.20;1.80;;;;;;;18.52;48.75;101900.31;5092989;28;20023;-69
2022/11/02 10:01:54;;;;;;;10.80;1.75;;;;;;;17.98;48.81;101912.84;5092260;28;20063;-68
2022/11/02 10:04:55;;;;;;;17.48;2.08;;;;;;;18.47;49.24;101922.88;5092177;28;20443;-68
2022/11/02 10:07:30;;;;;;;10.27;1.80;;;;;;;18.35;48.81;101916.66;5072216;28;20063;-66
2022/11/02 10:10:09;;;;;;;9.27;1.65;;;;;;;17.99;49.56;101945.22;5071975;28;20128;-66
2022/11/02 10:12:34;;;;;;;17.45;2.20;;;;;;;18.33;48.44;101925.09;5071630;28;20041;-67
2022/11/02 10:15:18;;;;;;;7.90;1.90;;;;;;;18.72;47.24;101923.19;5071790;28;20093;-68
2022/11/02 10:17:46;;;;;;;6.25;1.92;;;;;;;18.76;47.63;101932.53;5071651;28;20035;-67
2022/11/02 10:20:25;;;;;;;9.50;2.10;;;;;;;18.54;49.08;101939.00;5072285;28;20033;-68
2022/11/02 10:22:57;;;;;;;18.85;3.65;;;;;;;18.66;48.35;101942.44;5071783;28;20512;-68
2022/11/02 10:25:23;;;;;;;11.45;2.05;;;;;;;18.05;48.20;101954.28;5087679;28;20097;-68
2022/11/02 10:27:59;;;;;;;12.73;2.08;;;;;;;18.26;49.09;101954.34;5091942;28;20036;-68
2022/11/02 10:30:26;;;;;;;6.50;2.40;;;;;;;18.70;47.80;101947.13;5090249;28;20043;-68
2022/11/02 10:32:53;;;;;;;9.45;1.85;;;;;;;19.03;47.36;101944.28;5092127;28;20040;-68
2022/11/02 10:35:25;;;;;;;16.88;2.60;;;;;;;18.30;47.35;101963.69;5092142;28;20032;-66
2022/11/02 10:38:10;;;;;;;10.05;1.70;;;;;;;18.80;46.62;101954.63;5092037;28;20533;-68
2022/11/02 10:41:04;;;;;;;7.00;1.42;;;;;;;18.66;47.49;101954.16;5077043;28;20052;-68
2022/11/02 10:43:39;;;;;;;15.07;1.83;;;;;;;18.36;47.09;101964.56;5071443;28;20520;-67
2022/11/02 10:46:04;;;;;;;17.08;2.15;;;;;;;19.24;46.24;101959.00;5071391;28;20048;-69
2022/11/02 10:48:38;;;;;;;14.10;3.08;;;;;;;18.49;47.96;101960.72;5071315;28;20123;-67
2022/11/02 10:51:12;;;;;;;12.18;1.55;;;;;;;18.75;47.55;101974.44;5086534;28;20040;-66
2022/11/02 10:53:41;;;;;;;11.48;3.22;;;;;;;18.67;46.81;101963.97;5091518;28;20111;-67
2022/11/02 10:56:18;;;;;;;12.90;2.03;;;;;;;18.44;47.20;101969.63;5091879;28;20024;-68
2022/11/02 10:59:17;;;;;;;8.60;2.00;;;;;;;18.46;47.81;101983.81;5091365;28;20070;-66
2022/11/02 11:02:02;;;;;;;9.20;1.83;;;;;;;18.64;48.46;101989.00;5007759;28;20042;-68
2022/11/02 11:04:29;;;;;;;12.82;2.03;;;;;;;18.81;47.24;101986.25;4993189;28;20539;-67
2022/11/02 11:06:56;;;;;;;8.48;1.60;;;;;;;19.25;46.71;101980.53;4992983;28;20485;-68
2022/11/02 11:09:30;;;;;;;11.65;1.92;;;;;;;19.24;46.87;101986.25;4993097;28;20126;-68
2022/11/02 11:12:00;;;;;;;7.18;1.17;;;;;;;18.05;47.97;101981.50;4992857;28;20088;-68
2022/11/02 11:14:35;;;;;;;4.15;1.50;;;;;;;19.56;44.95;101978.16;4993176;28;20076;-66
2022/11/02 11:17:01;;;;;;;6.40;1.33;;;;;;;19.58;46.19;101981.47;4993636;28;20030;-68
2022/11/02 11:19:45;;;;;;;11.38;1.98;;;;;;;19.58;45.63;101981.47;4993123;28;20101;-68
2022/11/02 11:22:40;;;;;;;6.43;1.33;;;;;;;19.14;46.02;101986.13;5008374;28;20046;-68
2022/11/02 11:25:11;;;;;;;12.18;2.40;;;;;;;19.00;46.11;101988.41;4973115;28;20046;-67
2022/11/02 11:27:51;;;;;;;6.93;2.42;;;;;;;19.34;44.75;101982.84;4973504;28;20030;-66
2022/11/02 11:30:37;;;;;;;13.43;1.93;;;;;;;19.30;46.24;101979.78;4973270;28;20042;-68
2022/11/02 11:33:05;;;;;;;7.57;1.73;;;;;;;19.62;44.80;101983.41;4957581;28;20042;-68
2022/11/02 11:35:37;;;;;;;20.05;2.38;;;;;;;18.31;47.29;101986.28;4973253;28;20434;-68
2022/11/02 11:38:08;;;;;;;14.93;1.63;;;;;;;18.88;45.94;102008.66;4994300;28;20041;-69
2022/11/02 11:40:42;;;;;;;11.57;2.15;;;;;;;18.51;46.16;101992.06;5037753;28;20572;-63
2022/11/02 11:43:14;;;;;;;14.15;1.95;;;;;;;19.06;43.57;101983.84;5031789;28;20046;-67
2022/11/02 11:45:51;;;;;;;7.93;1.67;;;;;;;18.81;43.82;101991.69;5031863;28;20085;-66
2022/11/02 11:48:37;;;;;;;5.95;1.38;;;;;;;19.28;43.62;101979.22;5031834;28;20034;-68
2022/11/02 11:51:03;;;;;;;9.65;1.75;;;;;;;19.18;43.53;101984.53;5046326;28;20056;-67